CGMPW KJFK-KBGR
Flight info
| Callsign | CGMPW |
|---|---|
| Flight time | N/A |
| Altitude | 35000 |
| Route | GREKI JUDDS CAM ENE |
| Aircraft | PC24/L-SBDGIRWY/LB2 |
Departure
| Time | 2026-05-08 11:16 |
|---|---|
| Airport | John F. Kennedy International Airport (KJFK) |
Arrival
| Time | N/A |
|---|---|
| Airport | Bangor International Airport (KBGR) |
| Time | Latitude | Longitude | Altitude | Speed | Heading |
|---|---|---|---|---|---|
| 2026-05-08 11:06 | 40.64257 | -73.77339 | 16 ft | 0 kts | 123° |
| 2026-05-08 11:10 | 40.64250 | -73.77333 | 16 ft | 3 kts | 162° |
| 2026-05-08 11:10 | 40.64202 | -73.77349 | 16 ft | 11 kts | 211° |
| 2026-05-08 11:10 | 40.64116 | -73.77418 | 16 ft | 16 kts | 205° |
| 2026-05-08 11:11 | 40.63999 | -73.77447 | 16 ft | 18 kts | 201° |
| 2026-05-08 11:11 | 40.63894 | -73.77526 | 16 ft | 17 kts | 212° |
| 2026-05-08 11:11 | 40.63797 | -73.77606 | 16 ft | 16 kts | 211° |
| 2026-05-08 11:11 | 40.63702 | -73.77678 | 16 ft | 16 kts | 210° |
| 2026-05-08 11:12 | 40.63602 | -73.77756 | 16 ft | 17 kts | 211° |
| 2026-05-08 11:12 | 40.63496 | -73.77840 | 16 ft | 18 kts | 210° |
| 2026-05-08 11:12 | 40.63388 | -73.77911 | 16 ft | 16 kts | 181° |
| 2026-05-08 11:12 | 40.63316 | -73.77821 | 18 ft | 14 kts | 119° |
| 2026-05-08 11:13 | 40.63260 | -73.77695 | 19 ft | 19 kts | 120° |
| 2026-05-08 11:13 | 40.63192 | -73.77542 | 18 ft | 19 kts | 120° |
| 2026-05-08 11:13 | 40.63124 | -73.77395 | 17 ft | 19 kts | 121° |
| 2026-05-08 11:13 | 40.63057 | -73.77248 | 17 ft | 18 kts | 121° |
| 2026-05-08 11:14 | 40.62993 | -73.77104 | 16 ft | 18 kts | 120° |
| 2026-05-08 11:14 | 40.62959 | -73.77049 | 16 ft | 2 kts | 194° |
| 2026-05-08 11:14 | 40.62925 | -73.77090 | 17 ft | 8 kts | 219° |
| 2026-05-08 11:14 | 40.62858 | -73.77159 | 17 ft | 16 kts | 224° |
| 2026-05-08 11:15 | 40.62869 | -73.77315 | 18 ft | 34 kts | 298° |
| 2026-05-08 11:15 | 40.63144 | -73.77927 | 20 ft | 120 kts | 301° |
| 2026-05-08 11:15 | 40.63693 | -73.79125 | 93 ft | 178 kts | 301° |
| 2026-05-08 11:15 | 40.64350 | -73.80631 | 351 ft | 189 kts | 300° |
| 2026-05-08 11:16 | 40.64968 | -73.82110 | 567 ft | 180 kts | 296° |
| 2026-05-08 11:16 | 40.65112 | -73.83698 | 754 ft | 175 kts | 257° |
| 2026-05-08 11:16 | 40.64585 | -73.85000 | 1318 ft | 152 kts | 230° |
| 2026-05-08 11:16 | 40.63780 | -73.85704 | 1823 ft | 131 kts | 217° |
| 2026-05-08 11:17 | 40.62933 | -73.86418 | 2348 ft | 166 kts | 218° |
| 2026-05-08 11:17 | 40.61825 | -73.87282 | 3136 ft | 201 kts | 215° |
| 2026-05-08 11:17 | 40.60490 | -73.88142 | 4129 ft | 223 kts | 210° |
| 2026-05-08 11:17 | 40.59382 | -73.89584 | 5205 ft | 234 kts | 250° |
| 2026-05-08 11:18 | 40.59299 | -73.91696 | 6433 ft | 244 kts | 288° |
| 2026-05-08 11:18 | 40.60295 | -73.93530 | 7776 ft | 255 kts | 318° |
| 2026-05-08 11:18 | 40.61887 | -73.94612 | 9196 ft | 265 kts | 343° |
| 2026-05-08 11:18 | 40.63751 | -73.94495 | 10568 ft | 275 kts | 7° |
| 2026-05-08 11:19 | 40.65437 | -73.93793 | 11734 ft | 249 kts | 15° |
| 2026-05-08 11:19 | 40.66982 | -73.92390 | 12248 ft | 288 kts | 33° |
| 2026-05-08 11:19 | 40.68615 | -73.90631 | 12815 ft | 317 kts | 32° |
| 2026-05-08 11:19 | 40.70384 | -73.88683 | 13376 ft | 343 kts | 34° |
| 2026-05-08 11:20 | 40.72206 | -73.86562 | 13925 ft | 354 kts | 35° |
| 2026-05-08 11:20 | 40.74080 | -73.84400 | 14423 ft | 361 kts | 34° |
| 2026-05-08 11:20 | 40.76001 | -73.82239 | 14922 ft | 365 kts | 34° |
| 2026-05-08 11:20 | 40.77938 | -73.80046 | 15426 ft | 368 kts | 34° |
| 2026-05-08 11:21 | 40.79883 | -73.77830 | 15927 ft | 371 kts | 34° |
| 2026-05-08 11:21 | 40.81847 | -73.75591 | 16442 ft | 375 kts | 33° |
| 2026-05-08 11:21 | 40.83812 | -73.73360 | 16989 ft | 379 kts | 33° |
| 2026-05-08 11:21 | 40.85825 | -73.71094 | 17531 ft | 381 kts | 33° |
| 2026-05-08 11:22 | 40.87841 | -73.68791 | 18082 ft | 385 kts | 33° |
| 2026-05-08 11:22 | 40.89877 | -73.66458 | 18581 ft | 390 kts | 33° |
| 2026-05-08 11:22 | 40.91945 | -73.64096 | 19061 ft | 395 kts | 33° |
| 2026-05-08 11:22 | 40.94033 | -73.61707 | 19552 ft | 399 kts | 33° |
| 2026-05-08 11:23 | 40.96143 | -73.59294 | 20053 ft | 403 kts | 33° |
| 2026-05-08 11:23 | 40.98267 | -73.56856 | 20561 ft | 406 kts | 33° |
| 2026-05-08 11:23 | 41.00409 | -73.54401 | 21077 ft | 409 kts | 33° |
| 2026-05-08 11:23 | 41.02568 | -73.51922 | 21621 ft | 413 kts | 33° |
| 2026-05-08 11:24 | 41.04754 | -73.49411 | 22156 ft | 416 kts | 33° |
| 2026-05-08 11:24 | 41.06956 | -73.46878 | 22706 ft | 421 kts | 32° |
| 2026-05-08 11:24 | 41.09152 | -73.44352 | 23255 ft | 425 kts | 32° |
| 2026-05-08 11:24 | 41.11393 | -73.41768 | 23766 ft | 429 kts | 32° |
| 2026-05-08 11:25 | 41.13658 | -73.39155 | 24232 ft | 433 kts | 32° |
| 2026-05-08 11:25 | 41.15938 | -73.36522 | 24708 ft | 436 kts | 32° |
| 2026-05-08 11:25 | 41.18231 | -73.33873 | 25193 ft | 439 kts | 32° |
| 2026-05-08 11:25 | 41.20544 | -73.31198 | 25735 ft | 441 kts | 32° |
| 2026-05-08 11:26 | 41.22860 | -73.28514 | 26233 ft | 442 kts | 31° |
| 2026-05-08 11:26 | 41.25182 | -73.25823 | 26742 ft | 443 kts | 31° |
| 2026-05-08 11:26 | 41.27512 | -73.23120 | 27258 ft | 444 kts | 31° |
| 2026-05-08 11:26 | 41.29836 | -73.20422 | 27790 ft | 444 kts | 31° |
| 2026-05-08 11:27 | 41.32165 | -73.17713 | 28322 ft | 445 kts | 30° |
| 2026-05-08 11:27 | 41.34494 | -73.15004 | 28866 ft | 444 kts | 30° |
| 2026-05-08 11:27 | 41.36822 | -73.12292 | 29502 ft | 444 kts | 31° |
| 2026-05-08 11:27 | 41.39143 | -73.09584 | 30064 ft | 442 kts | 31° |
| 2026-05-08 11:28 | 41.41455 | -73.06888 | 30527 ft | 441 kts | 31° |
| 2026-05-08 11:28 | 41.43758 | -73.04197 | 31004 ft | 439 kts | 31° |
| 2026-05-08 11:28 | 41.46032 | -73.01538 | 31484 ft | 438 kts | 31° |
| 2026-05-08 11:28 | 41.48316 | -72.98864 | 31975 ft | 436 kts | 31° |
| 2026-05-08 11:29 | 41.50591 | -72.96198 | 32471 ft | 434 kts | 31° |
| 2026-05-08 11:29 | 41.52853 | -72.93547 | 32968 ft | 432 kts | 32° |
| 2026-05-08 11:29 | 41.55105 | -72.90903 | 33483 ft | 430 kts | 32° |
| 2026-05-08 11:29 | 41.57348 | -72.88268 | 33999 ft | 428 kts | 32° |
| 2026-05-08 11:30 | 41.59577 | -72.85646 | 34439 ft | 426 kts | 32° |
| 2026-05-08 11:30 | 41.61801 | -72.83039 | 34836 ft | 425 kts | 32° |
| 2026-05-08 11:30 | 41.64060 | -72.80441 | 34973 ft | 433 kts | 32° |
| 2026-05-08 11:30 | 41.66355 | -72.77755 | 34969 ft | 444 kts | 33° |
| 2026-05-08 11:31 | 41.67896 | -72.75916 | 34974 ft | 451 kts | 33° |
| 2026-05-08 11:31 | 41.71043 | -72.72166 | 34996 ft | 462 kts | 33° |
| 2026-05-08 11:31 | 41.73477 | -72.69300 | 34959 ft | 470 kts | 33° |
| 2026-05-08 11:32 | 41.78413 | -72.63446 | 34955 ft | 475 kts | 34° |
| 2026-05-08 11:32 | 41.83343 | -72.57586 | 34936 ft | 472 kts | 34° |
| 2026-05-08 11:33 | 41.87425 | -72.52733 | 34932 ft | 472 kts | 34° |
| 2026-05-08 11:33 | 41.92327 | -72.46882 | 34945 ft | 470 kts | 34° |
| 2026-05-08 11:34 | 41.97204 | -72.41057 | 34941 ft | 469 kts | 34° |
| 2026-05-08 11:34 | 42.02090 | -72.35205 | 34935 ft | 470 kts | 34° |
| 2026-05-08 11:35 | 42.06944 | -72.29382 | 34924 ft | 471 kts | 35° |
| 2026-05-08 11:35 | 42.11836 | -72.23496 | 34914 ft | 471 kts | 35° |
| 2026-05-08 11:36 | 42.16725 | -72.17604 | 34909 ft | 470 kts | 35° |
| 2026-05-08 11:36 | 42.21571 | -72.11750 | 34898 ft | 470 kts | 35° |
| 2026-05-08 11:37 | 42.26437 | -72.05860 | 34908 ft | 469 kts | 35° |
| 2026-05-08 11:37 | 42.31287 | -71.99976 | 34906 ft | 468 kts | 35° |
| 2026-05-08 11:38 | 42.36157 | -71.94057 | 34906 ft | 470 kts | 35° |
| 2026-05-08 11:38 | 42.41012 | -71.88142 | 34796 ft | 475 kts | 36° |
| 2026-05-08 11:38 | 42.43446 | -71.85167 | 34375 ft | 466 kts | 36° |
| 2026-05-08 11:39 | 42.45785 | -71.82294 | 34113 ft | 443 kts | 36° |
| 2026-05-08 11:39 | 42.48050 | -71.79521 | 33233 ft | 436 kts | 35° |
| 2026-05-08 11:39 | 42.50311 | -71.76780 | 32086 ft | 436 kts | 34° |
| 2026-05-08 11:39 | 42.52570 | -71.74017 | 30960 ft | 436 kts | 35° |
| 2026-05-08 11:40 | 42.54819 | -71.71245 | 29806 ft | 436 kts | 35° |
| 2026-05-08 11:40 | 42.57061 | -71.68487 | 28599 ft | 431 kts | 35° |
| 2026-05-08 11:40 | 42.59227 | -71.65821 | 27624 ft | 421 kts | 35° |
| 2026-05-08 11:40 | 42.61379 | -71.63176 | 26626 ft | 413 kts | 35° |
| 2026-05-08 11:41 | 42.63486 | -71.60582 | 25672 ft | 404 kts | 34° |
| 2026-05-08 11:41 | 42.65554 | -71.58034 | 24741 ft | 397 kts | 34° |
| 2026-05-08 11:41 | 42.67576 | -71.55536 | 23857 ft | 389 kts | 34° |
| 2026-05-08 11:41 | 42.69568 | -71.53079 | 22810 ft | 384 kts | 34° |
| 2026-05-08 11:42 | 42.71529 | -71.50657 | 21861 ft | 376 kts | 35° |
| 2026-05-08 11:42 | 42.73435 | -71.48293 | 21008 ft | 365 kts | 36° |
| 2026-05-08 11:42 | 42.75296 | -71.45990 | 20057 ft | 358 kts | 36° |
| 2026-05-08 11:42 | 42.77096 | -71.43764 | 19174 ft | 351 kts | 36° |
| 2026-05-08 11:43 | 42.78885 | -71.41545 | 18298 ft | 344 kts | 36° |
| 2026-05-08 11:43 | 42.80644 | -71.39361 | 17317 ft | 338 kts | 36° |
| 2026-05-08 11:43 | 42.82371 | -71.37217 | 16332 ft | 334 kts | 37° |
| 2026-05-08 11:43 | 42.84074 | -71.35100 | 15376 ft | 330 kts | 37° |
| 2026-05-08 11:44 | 42.85761 | -71.32999 | 14460 ft | 326 kts | 37° |
| 2026-05-08 11:44 | 42.87431 | -71.30921 | 13586 ft | 322 kts | 38° |
| 2026-05-08 11:44 | 42.89072 | -71.28877 | 12683 ft | 317 kts | 38° |
| 2026-05-08 11:44 | 42.90685 | -71.26864 | 11771 ft | 311 kts | 38° |
| 2026-05-08 11:45 | 42.92267 | -71.24888 | 10929 ft | 306 kts | 38° |
| 2026-05-08 11:45 | 42.93825 | -71.22944 | 10105 ft | 301 kts | 38° |
| 2026-05-08 11:45 | 42.95338 | -71.21052 | 9240 ft | 296 kts | 38° |
| 2026-05-08 11:45 | 42.96844 | -71.19171 | 8389 ft | 291 kts | 38° |
| 2026-05-08 11:46 | 42.98321 | -71.17319 | 7567 ft | 285 kts | 38° |
| 2026-05-08 11:46 | 42.99770 | -71.15507 | 6777 ft | 279 kts | 38° |
| 2026-05-08 11:46 | 43.01191 | -71.13727 | 5983 ft | 274 kts | 38° |
| 2026-05-08 11:46 | 43.02589 | -71.11973 | 5142 ft | 271 kts | 39° |
| 2026-05-08 11:47 | 43.03967 | -71.10245 | 4322 ft | 267 kts | 39° |
| 2026-05-08 11:47 | 43.05329 | -71.08532 | 3504 ft | 264 kts | 39° |
| 2026-05-08 11:47 | 43.06663 | -71.06856 | 2903 ft | 257 kts | 38° |
| 2026-05-08 11:47 | 43.07952 | -71.05233 | 2877 ft | 251 kts | 38° |
| 2026-05-08 11:48 | 43.09275 | -71.03580 | 2886 ft | 260 kts | 38° |
| 2026-05-08 11:48 | 43.10612 | -71.01898 | 2889 ft | 262 kts | 38° |
| 2026-05-08 11:48 | 43.11958 | -71.00199 | 2884 ft | 264 kts | 38° |
| 2026-05-08 11:48 | 43.13307 | -70.98495 | 2885 ft | 263 kts | 39° |
| 2026-05-08 11:49 | 43.14645 | -70.96806 | 2880 ft | 264 kts | 38° |
| 2026-05-08 11:49 | 43.15995 | -70.95107 | 2878 ft | 263 kts | 38° |
| 2026-05-08 11:49 | 43.17342 | -70.93406 | 2875 ft | 263 kts | 38° |
| 2026-05-08 11:49 | 43.18687 | -70.91706 | 2877 ft | 263 kts | 39° |
| 2026-05-08 11:50 | 43.20034 | -70.90001 | 2880 ft | 264 kts | 39° |
| 2026-05-08 11:50 | 43.21388 | -70.88289 | 2876 ft | 264 kts | 39° |
| 2026-05-08 11:50 | 43.22739 | -70.86577 | 2884 ft | 263 kts | 39° |
| 2026-05-08 11:50 | 43.24078 | -70.84883 | 2884 ft | 261 kts | 39° |
| 2026-05-08 11:51 | 43.25411 | -70.83189 | 2881 ft | 261 kts | 39° |
| 2026-05-08 11:51 | 43.26733 | -70.81521 | 2883 ft | 262 kts | 39° |
| 2026-05-08 11:51 | 43.28072 | -70.79819 | 2875 ft | 262 kts | 39° |
| 2026-05-08 11:51 | 43.29414 | -70.78115 | 2877 ft | 262 kts | 39° |
| 2026-05-08 11:52 | 43.30751 | -70.76419 | 2895 ft | 262 kts | 39° |
| 2026-05-08 11:52 | 43.32093 | -70.74704 | 2895 ft | 263 kts | 39° |
| 2026-05-08 11:52 | 43.33432 | -70.73004 | 2892 ft | 262 kts | 39° |
| 2026-05-08 11:52 | 43.34768 | -70.71306 | 2893 ft | 261 kts | 39° |
| 2026-05-08 11:53 | 43.36098 | -70.69610 | 2892 ft | 261 kts | 39° |
| 2026-05-08 11:53 | 43.37428 | -70.67914 | 2892 ft | 261 kts | 39° |
| 2026-05-08 11:53 | 43.38757 | -70.66221 | 2890 ft | 261 kts | 39° |
| 2026-05-08 11:53 | 43.40076 | -70.64540 | 2891 ft | 261 kts | 39° |
| 2026-05-08 11:54 | 43.41408 | -70.62837 | 2891 ft | 261 kts | 39° |
| 2026-05-08 11:54 | 43.42666 | -70.61025 | 2893 ft | 264 kts | 47° |
| 2026-05-08 11:54 | 43.43784 | -70.59002 | 2894 ft | 266 kts | 49° |
| 2026-05-08 11:54 | 43.44939 | -70.57020 | 2896 ft | 265 kts | 46° |
| 2026-05-08 11:55 | 43.46135 | -70.55090 | 2886 ft | 265 kts | 46° |
| 2026-05-08 11:55 | 43.47329 | -70.53160 | 2892 ft | 264 kts | 46° |
| 2026-05-08 11:55 | 43.48505 | -70.51218 | 2889 ft | 263 kts | 47° |
| 2026-05-08 11:55 | 43.49676 | -70.49283 | 2886 ft | 262 kts | 46° |
| 2026-05-08 11:56 | 43.50846 | -70.47357 | 2895 ft | 262 kts | 46° |
| 2026-05-08 11:56 | 43.52016 | -70.45429 | 2896 ft | 262 kts | 46° |
| 2026-05-08 11:56 | 43.53191 | -70.43498 | 2888 ft | 263 kts | 46° |
| 2026-05-08 11:56 | 43.54363 | -70.41556 | 2891 ft | 264 kts | 46° |
| 2026-05-08 11:57 | 43.55544 | -70.39612 | 2890 ft | 264 kts | 47° |
| 2026-05-08 11:57 | 43.56715 | -70.37678 | 2888 ft | 262 kts | 46° |
| 2026-05-08 11:57 | 43.57870 | -70.35768 | 2887 ft | 262 kts | 46° |
| 2026-05-08 11:57 | 43.59040 | -70.33832 | 2879 ft | 263 kts | 47° |
| 2026-05-08 11:58 | 43.60218 | -70.31880 | 2873 ft | 264 kts | 46° |
| 2026-05-08 11:58 | 43.61393 | -70.29941 | 2880 ft | 263 kts | 47° |
| 2026-05-08 11:58 | 43.62559 | -70.27997 | 2883 ft | 262 kts | 47° |
| 2026-05-08 11:59 | 43.64894 | -70.24145 | 2882 ft | 262 kts | 46° |
| 2026-05-08 11:59 | 43.66059 | -70.22196 | 2882 ft | 264 kts | 47° |
| 2026-05-08 11:59 | 43.67229 | -70.20250 | 2880 ft | 263 kts | 47° |
| 2026-05-08 11:59 | 43.68403 | -70.18295 | 2881 ft | 263 kts | 47° |
| 2026-05-08 12:00 | 43.69574 | -70.16350 | 2879 ft | 263 kts | 47° |
| 2026-05-08 12:00 | 43.70727 | -70.14429 | 2874 ft | 263 kts | 47° |
| 2026-05-08 12:00 | 43.71894 | -70.12486 | 2874 ft | 263 kts | 47° |
| 2026-05-08 12:00 | 43.73061 | -70.10538 | 2875 ft | 263 kts | 47° |
| 2026-05-08 12:01 | 43.74232 | -70.08585 | 2878 ft | 264 kts | 47° |
| 2026-05-08 12:01 | 43.75407 | -70.06625 | 2879 ft | 264 kts | 47° |
| 2026-05-08 12:01 | 43.76580 | -70.04662 | 2882 ft | 265 kts | 47° |
| 2026-05-08 12:01 | 43.77742 | -70.02720 | 2881 ft | 264 kts | 47° |
| 2026-05-08 12:02 | 43.78913 | -70.00760 | 2882 ft | 264 kts | 47° |
| 2026-05-08 12:02 | 43.80086 | -69.98800 | 2886 ft | 265 kts | 47° |
| 2026-05-08 12:02 | 43.81263 | -69.96825 | 2881 ft | 265 kts | 47° |
| 2026-05-08 12:02 | 43.82437 | -69.94857 | 2880 ft | 264 kts | 47° |
| 2026-05-08 12:03 | 43.83607 | -69.92893 | 2879 ft | 264 kts | 47° |
| 2026-05-08 12:03 | 43.84773 | -69.90933 | 2879 ft | 264 kts | 47° |
| 2026-05-08 12:03 | 43.85941 | -69.88975 | 2879 ft | 264 kts | 47° |
| 2026-05-08 12:03 | 43.87111 | -69.87005 | 2882 ft | 264 kts | 47° |
| 2026-05-08 12:04 | 43.88282 | -69.85037 | 2884 ft | 265 kts | 47° |
| 2026-05-08 12:04 | 43.89453 | -69.83066 | 2885 ft | 265 kts | 47° |
| 2026-05-08 12:04 | 43.90608 | -69.81118 | 2878 ft | 265 kts | 47° |
| 2026-05-08 12:04 | 43.91782 | -69.79140 | 2876 ft | 265 kts | 47° |
| 2026-05-08 12:05 | 43.92953 | -69.77167 | 2875 ft | 265 kts | 47° |
| 2026-05-08 12:05 | 43.94121 | -69.75194 | 2873 ft | 265 kts | 47° |
| 2026-05-08 12:05 | 43.95289 | -69.73219 | 2875 ft | 264 kts | 46° |
| 2026-05-08 12:05 | 43.96459 | -69.71246 | 2876 ft | 265 kts | 46° |
| 2026-05-08 12:06 | 43.97628 | -69.69268 | 2873 ft | 266 kts | 46° |
| 2026-05-08 12:06 | 43.98803 | -69.67275 | 2873 ft | 266 kts | 47° |
| 2026-05-08 12:06 | 43.99979 | -69.65285 | 2881 ft | 266 kts | 46° |
| 2026-05-08 12:06 | 44.01141 | -69.63317 | 2879 ft | 266 kts | 46° |
| 2026-05-08 12:07 | 44.02313 | -69.61324 | 2878 ft | 267 kts | 46° |
| 2026-05-08 12:07 | 44.03491 | -69.59331 | 2878 ft | 267 kts | 46° |
| 2026-05-08 12:07 | 44.04663 | -69.57335 | 2877 ft | 266 kts | 46° |
| 2026-05-08 12:07 | 44.05839 | -69.55339 | 2875 ft | 267 kts | 46° |
| 2026-05-08 12:08 | 44.07017 | -69.53342 | 2874 ft | 268 kts | 47° |
| 2026-05-08 12:08 | 44.08193 | -69.51329 | 2876 ft | 268 kts | 47° |
| 2026-05-08 12:08 | 44.09373 | -69.49320 | 2867 ft | 268 kts | 46° |
| 2026-05-08 12:08 | 44.10555 | -69.47312 | 2875 ft | 268 kts | 46° |
| 2026-05-08 12:09 | 44.11720 | -69.45323 | 2862 ft | 268 kts | 47° |
| 2026-05-08 12:09 | 44.12897 | -69.43309 | 2858 ft | 268 kts | 47° |
| 2026-05-08 12:09 | 44.14077 | -69.41296 | 2857 ft | 268 kts | 47° |
| 2026-05-08 12:09 | 44.15257 | -69.39285 | 2852 ft | 268 kts | 47° |
| 2026-05-08 12:10 | 44.16431 | -69.37275 | 2851 ft | 267 kts | 47° |
| 2026-05-08 12:10 | 44.17603 | -69.35264 | 2854 ft | 266 kts | 47° |
| 2026-05-08 12:10 | 44.18777 | -69.33255 | 2849 ft | 266 kts | 47° |
| 2026-05-08 12:10 | 44.19932 | -69.31279 | 2852 ft | 267 kts | 47° |
| 2026-05-08 12:11 | 44.21108 | -69.29262 | 2854 ft | 267 kts | 47° |
| 2026-05-08 12:11 | 44.22283 | -69.27243 | 2852 ft | 269 kts | 47° |
| 2026-05-08 12:11 | 44.23459 | -69.25222 | 2856 ft | 269 kts | 47° |
| 2026-05-08 12:11 | 44.24636 | -69.23194 | 2861 ft | 269 kts | 47° |
| 2026-05-08 12:12 | 44.25813 | -69.21180 | 2858 ft | 267 kts | 47° |
| 2026-05-08 12:12 | 44.26982 | -69.19162 | 2851 ft | 267 kts | 47° |
| 2026-05-08 12:12 | 44.28153 | -69.17147 | 2853 ft | 266 kts | 47° |
| 2026-05-08 12:12 | 44.29318 | -69.15140 | 2849 ft | 265 kts | 47° |
| 2026-05-08 12:13 | 44.30476 | -69.13147 | 2837 ft | 264 kts | 47° |
| 2026-05-08 12:13 | 44.31628 | -69.11148 | 2829 ft | 264 kts | 47° |
| 2026-05-08 12:13 | 44.32782 | -69.09159 | 2830 ft | 264 kts | 47° |
| 2026-05-08 12:13 | 44.33926 | -69.07188 | 2831 ft | 264 kts | 47° |
| 2026-05-08 12:14 | 44.35079 | -69.05193 | 2831 ft | 264 kts | 47° |
| 2026-05-08 12:14 | 44.36231 | -69.03188 | 2831 ft | 265 kts | 47° |
| 2026-05-08 12:14 | 44.37393 | -69.01186 | 2831 ft | 265 kts | 47° |
| 2026-05-08 12:14 | 44.38547 | -68.99180 | 2830 ft | 264 kts | 47° |
| 2026-05-08 12:15 | 44.39704 | -68.97179 | 2846 ft | 265 kts | 47° |
| 2026-05-08 12:15 | 44.40859 | -68.95168 | 2838 ft | 265 kts | 47° |
| 2026-05-08 12:15 | 44.42014 | -68.93165 | 2838 ft | 264 kts | 47° |
| 2026-05-08 12:15 | 44.43166 | -68.91161 | 2839 ft | 263 kts | 47° |
| 2026-05-08 12:16 | 44.44314 | -68.89168 | 2839 ft | 263 kts | 47° |
| 2026-05-08 12:16 | 44.45460 | -68.87169 | 2840 ft | 263 kts | 47° |
| 2026-05-08 12:16 | 44.46605 | -68.85179 | 2840 ft | 263 kts | 47° |
| 2026-05-08 12:16 | 44.47751 | -68.83175 | 2838 ft | 264 kts | 47° |
| 2026-05-08 12:17 | 44.48904 | -68.81171 | 2833 ft | 264 kts | 47° |
| 2026-05-08 12:17 | 44.50054 | -68.79165 | 2824 ft | 263 kts | 47° |
| 2026-05-08 12:17 | 44.51184 | -68.77189 | 2831 ft | 263 kts | 47° |
| 2026-05-08 12:17 | 44.52327 | -68.75191 | 2824 ft | 263 kts | 47° |
| 2026-05-08 12:18 | 44.53472 | -68.73189 | 2830 ft | 263 kts | 47° |
| 2026-05-08 12:18 | 44.54614 | -68.71191 | 2832 ft | 262 kts | 47° |
| 2026-05-08 12:18 | 44.55754 | -68.69194 | 2832 ft | 262 kts | 47° |
| 2026-05-08 12:18 | 44.56502 | -68.67890 | 2813 ft | 246 kts | 47° |
| 2026-05-08 12:19 | 44.57459 | -68.66174 | 2801 ft | 212 kts | 46° |
| 2026-05-08 12:19 | 44.58367 | -68.64595 | 2830 ft | 201 kts | 46° |
| 2026-05-08 12:19 | 44.59232 | -68.63084 | 2818 ft | 199 kts | 46° |
| 2026-05-08 12:19 | 44.60103 | -68.61565 | 2818 ft | 200 kts | 46° |
| 2026-05-08 12:20 | 44.60981 | -68.60025 | 2810 ft | 202 kts | 46° |
| 2026-05-08 12:20 | 44.62139 | -68.57984 | 2815 ft | 200 kts | 47° |
| 2026-05-08 12:20 | 44.62726 | -68.56948 | 2815 ft | 200 kts | 47° |
| 2026-05-08 12:20 | 44.63293 | -68.55193 | 2802 ft | 197 kts | 78° |
| 2026-05-08 12:21 | 44.63159 | -68.53356 | 2792 ft | 184 kts | 108° |
| 2026-05-08 12:21 | 44.62494 | -68.51950 | 2792 ft | 165 kts | 134° |
| 2026-05-08 12:21 | 44.61720 | -68.50845 | 2809 ft | 161 kts | 133° |
| 2026-05-08 12:21 | 44.60814 | -68.50019 | 2751 ft | 154 kts | 178° |
| 2026-05-08 12:22 | 44.59912 | -68.50503 | 2772 ft | 131 kts | 233° |
| 2026-05-08 12:22 | 44.59551 | -68.51618 | 2819 ft | 128 kts | 275° |
| 2026-05-08 12:22 | 44.59846 | -68.52755 | 2825 ft | 126 kts | 313° |
| 2026-05-08 12:22 | 44.60467 | -68.53622 | 2825 ft | 126 kts | 314° |
| 2026-05-08 12:23 | 44.61070 | -68.54509 | 2828 ft | 124 kts | 315° |
| 2026-05-08 12:23 | 44.61672 | -68.55370 | 2821 ft | 123 kts | 315° |
| 2026-05-08 12:23 | 44.62269 | -68.56226 | 2822 ft | 122 kts | 315° |
| 2026-05-08 12:23 | 44.62865 | -68.57055 | 2806 ft | 120 kts | 316° |
| 2026-05-08 12:24 | 44.63443 | -68.57887 | 2808 ft | 119 kts | 315° |
| 2026-05-08 12:24 | 44.64030 | -68.58729 | 2820 ft | 123 kts | 316° |
| 2026-05-08 12:24 | 44.64635 | -68.59590 | 2818 ft | 124 kts | 314° |
| 2026-05-08 12:24 | 44.65233 | -68.60448 | 2821 ft | 123 kts | 315° |
| 2026-05-08 12:25 | 44.65832 | -68.61313 | 2821 ft | 123 kts | 315° |
| 2026-05-08 12:25 | 44.66428 | -68.62181 | 2829 ft | 125 kts | 315° |
| 2026-05-08 12:25 | 44.67039 | -68.63040 | 2814 ft | 121 kts | 315° |
| 2026-05-08 12:25 | 44.67629 | -68.63892 | 2809 ft | 122 kts | 315° |
| 2026-05-08 12:26 | 44.68208 | -68.64728 | 2814 ft | 120 kts | 315° |
| 2026-05-08 12:26 | 44.68794 | -68.65573 | 2812 ft | 121 kts | 315° |
| 2026-05-08 12:26 | 44.69386 | -68.66431 | 2812 ft | 123 kts | 315° |
| 2026-05-08 12:26 | 44.69981 | -68.67288 | 2810 ft | 122 kts | 315° |
| 2026-05-08 12:27 | 44.70576 | -68.68146 | 2786 ft | 124 kts | 315° |
| 2026-05-08 12:27 | 44.71212 | -68.69049 | 2630 ft | 135 kts | 315° |
| 2026-05-08 12:27 | 44.71895 | -68.70035 | 2437 ft | 146 kts | 314° |
| 2026-05-08 12:27 | 44.72618 | -68.71077 | 2223 ft | 152 kts | 314° |
| 2026-05-08 12:28 | 44.73369 | -68.72163 | 2005 ft | 159 kts | 314° |
| 2026-05-08 12:28 | 44.74154 | -68.73298 | 1773 ft | 163 kts | 313° |
| 2026-05-08 12:28 | 44.74950 | -68.74448 | 1545 ft | 164 kts | 313° |
| 2026-05-08 12:28 | 44.75744 | -68.75590 | 1314 ft | 166 kts | 313° |
| 2026-05-08 12:29 | 44.76551 | -68.76749 | 1086 ft | 162 kts | 313° |
| 2026-05-08 12:29 | 44.77222 | -68.77715 | 864 ft | 121 kts | 313° |
| 2026-05-08 12:29 | 44.77763 | -68.78497 | 659 ft | 104 kts | 312° |
| 2026-05-08 12:29 | 44.78245 | -68.79193 | 375 ft | 97 kts | 311° |
| 2026-05-08 12:30 | 44.78808 | -68.80025 | 400 ft | 118 kts | 313° |
| 2026-05-08 12:30 | 44.79352 | -68.80791 | 280 ft | 102 kts | 310° |
| 2026-05-08 12:30 | 44.79838 | -68.81515 | 194 ft | 110 kts | 312° |
| 2026-05-08 12:30 | 44.80301 | -68.82184 | 171 ft | 82 kts | 312° |